»·PEaware :: DAL522 KSLC-KSFO

DAL522 :: KSLC-KSFO

FLIGHT INFORMATION

Flight Status: Arrived
Operator:
Delta Air Lines
More flights by this operator :: More flights under this callsign
Pilot: John C. (18682)
Aircraft: AIRBUS A320
(A320)
More flights by this aircraft type
Origin: KSLC Salt Lake City Intl
United States
Destination: KSFO San Francisco Intl
United States
More flights between these airports :: More routes between these airports
Route: +WEVIC6 OAL INYOE DYAMD3
File this flight plan on PilotEdge
Remarks:
Altitude:
(Current/Filed)
38,000ft
Speed:
(Current/Filed)
445kts
Departed: 28-Apr-18 10:01 AM
Arrived: 28-Apr-18 11:40 AM
Distance/Time
Traveled:
519nm/1:39
Distance/Time
To Go:
Arrived

Flight Plot

Page will automatically refresh every two minutes.

Flight plan parsing failed; only flown route is shown


Map Options




Map Legend


Flown Route
Filed Route
Departure Airport
Arrival Airport
Navaid (VOR, NDB)
Fix

Horizontal Profiles

Position Reports

Time Latitude Longitude Heading Altitude Ground
Speed
28-Apr-18 09:26 40.788508 -111.980775 283 4236ft 0kts
28-Apr-18 09:27 40.788508 -111.980775 283 4236ft 0kts
28-Apr-18 09:28 40.788508 -111.980775 283 4236ft 0kts
28-Apr-18 09:29 40.788508 -111.980775 283 4236ft 0kts
28-Apr-18 09:30 40.788508 -111.980775 283 4236ft 0kts
28-Apr-18 09:31 40.788508 -111.980775 283 4236ft 0kts
28-Apr-18 09:32 40.788508 -111.980775 283 4236ft 0kts
28-Apr-18 09:33 40.788508 -111.980775 283 4236ft 0kts
28-Apr-18 09:34 40.788508 -111.980775 283 4236ft 0kts
28-Apr-18 09:35 40.788508 -111.980775 283 4236ft 0kts
28-Apr-18 09:36 40.788508 -111.980775 283 4236ft 0kts
28-Apr-18 09:37 40.788508 -111.980775 283 4236ft 0kts
28-Apr-18 09:38 40.788508 -111.980775 283 4236ft 0kts
28-Apr-18 09:39 40.788508 -111.980775 283 4236ft 0kts
28-Apr-18 09:40 40.788508 -111.980775 283 4236ft 0kts
28-Apr-18 09:41 40.788508 -111.980775 283 4236ft 0kts
28-Apr-18 09:42 40.788508 -111.980775 283 4236ft 0kts
28-Apr-18 09:43 40.788508 -111.980775 283 4236ft 0kts
28-Apr-18 09:44 40.788508 -111.980775 283 4236ft 0kts
28-Apr-18 09:45 40.788508 -111.980775 283 4236ft 0kts
28-Apr-18 09:46 40.788506 -111.980764 283 4236ft 1kts
28-Apr-18 09:47 40.788322 -111.980161 325 4236ft 2kts
28-Apr-18 09:48 40.787973 -111.980120 18 4236ft 0kts
28-Apr-18 09:49 40.787971 -111.980120 18 4236ft 0kts
28-Apr-18 09:50 40.787971 -111.980120 18 4236ft 0kts
28-Apr-18 09:51 40.788993 -111.979858 356 4236ft 11kts
28-Apr-18 09:52 40.790269 -111.977919 85 4236ft 0kts
28-Apr-18 09:53 40.790269 -111.977920 85 4236ft 0kts
28-Apr-18 09:54 40.791934 -111.977311 355 4236ft 15kts
28-Apr-18 09:55 40.797287 -111.977930 354 4236ft 19kts
28-Apr-18 09:56 40.802401 -111.978464 7 4236ft 17kts
28-Apr-18 09:57 40.806927 -111.978571 8 4236ft 5kts
28-Apr-18 09:58 40.807256 -111.978384 28 4236ft 1kts
28-Apr-18 09:59 40.807300 -111.978352 29 4236ft 1kts
28-Apr-18 10:00 40.804360 -111.976582 174 4236ft 71kts
28-Apr-18 10:01 40.761640 -111.972691 176 6387ft 179kts
28-Apr-18 10:02 40.703617 -111.968620 177 8468ft 247kts
28-Apr-18 10:03 40.628543 -111.963465 177 11301ft 286kts
28-Apr-18 10:04 40.548068 -111.957928 177 14568ft 298kts
28-Apr-18 10:05 40.463845 -111.952212 178 17504ft 311kts
28-Apr-18 10:06 40.376063 -111.946150 178 20128ft 323kts
28-Apr-18 10:07 40.285314 -111.939880 178 22469ft 335kts
28-Apr-18 10:08 40.192048 -111.951387 188 24565ft 344kts
28-Apr-18 10:09 40.095249 -111.965685 187 26180ft 363kts
28-Apr-18 10:10 39.990207 -111.981075 187 27116ft 393kts
28-Apr-18 10:11 39.881178 -111.996951 187 28561ft 402kts
28-Apr-18 10:12 39.769296 -112.013228 187 29902ft 411kts
28-Apr-18 10:13 39.654666 -112.029860 187 31116ft 419kts
28-Apr-18 10:14 39.539925 -112.055485 203 32182ft 423kts
28-Apr-18 10:15 39.451533 -112.153187 237 33111ft 431kts
28-Apr-18 10:16 39.412766 -112.292501 251 34213ft 431kts
28-Apr-18 10:17 39.378023 -112.440033 251 35276ft 429kts
28-Apr-18 10:18 39.343454 -112.586377 251 36245ft 426kts
28-Apr-18 10:19 39.308848 -112.732055 250 37054ft 426kts
28-Apr-18 10:20 39.274119 -112.877375 249 37849ft 423kts
28-Apr-18 10:21 39.239571 -113.021010 248 38008ft 415kts
28-Apr-18 10:22 39.205401 -113.162236 248 38010ft 414kts
28-Apr-18 10:23 39.176956 -113.279201 248 38013ft 415kts
28-Apr-18 10:24 39.142303 -113.420889 248 38017ft 415kts
28-Apr-18 10:25 39.107492 -113.562375 247 37998ft 415kts
28-Apr-18 10:26 39.072711 -113.702917 246 37993ft 414kts
28-Apr-18 10:27 39.031854 -113.866962 246 38009ft 414kts
28-Apr-18 10:28 38.996555 -114.007810 247 38031ft 414kts
28-Apr-18 10:29 38.961160 -114.148230 247 38027ft 414kts
28-Apr-18 10:30 38.925573 -114.288594 248 38028ft 415kts
28-Apr-18 10:31 38.895778 -114.405511 248 38031ft 416kts
28-Apr-18 10:32 38.859564 -114.546881 249 38042ft 419kts
28-Apr-18 10:33 38.823231 -114.687896 248 38056ft 419kts
28-Apr-18 10:34 38.786452 -114.829830 248 38054ft 419kts
28-Apr-18 10:35 38.749524 -114.971532 248 38041ft 418kts
28-Apr-18 10:36 38.712771 -115.111774 247 38078ft 413kts
28-Apr-18 10:37 38.676452 -115.249578 247 38081ft 404kts
28-Apr-18 10:38 38.640745 -115.384353 247 37999ft 398kts
28-Apr-18 10:39 38.605287 -115.517488 247 37987ft 395kts
28-Apr-18 10:40 38.569810 -115.650003 247 37986ft 396kts
28-Apr-18 10:41 38.534183 -115.782383 246 38048ft 397kts
28-Apr-18 10:42 38.498523 -115.914200 246 38120ft 399kts
28-Apr-18 10:43 38.462531 -116.046553 246 38129ft 399kts
28-Apr-18 10:44 38.426068 -116.179951 246 38124ft 399kts
28-Apr-18 10:45 38.391017 -116.314350 247 38116ft 400kts
28-Apr-18 10:46 38.356228 -116.448618 247 38110ft 400kts
28-Apr-18 10:47 38.321276 -116.582651 247 38109ft 400kts
28-Apr-18 10:48 38.286213 -116.716360 247 38113ft 400kts
28-Apr-18 10:49 38.250849 -116.850510 247 38117ft 400kts
28-Apr-18 10:50 38.215417 -116.984200 248 38118ft 399kts
28-Apr-18 10:51 38.179962 -117.117279 250 38105ft 399kts
28-Apr-18 10:52 38.144147 -117.250953 250 38097ft 399kts
28-Apr-18 10:53 38.108334 -117.383968 250 38102ft 400kts
28-Apr-18 10:54 38.072246 -117.517329 250 38107ft 400kts
28-Apr-18 10:55 38.036148 -117.650047 249 38104ft 400kts
28-Apr-18 10:56 38.002345 -117.783083 257 38089ft 402kts
28-Apr-18 10:57 37.987222 -117.923932 260 38076ft 403kts
28-Apr-18 10:58 37.972357 -118.064127 260 38061ft 402kts
28-Apr-18 10:59 37.957373 -118.204023 260 38045ft 402kts
28-Apr-18 11:00 37.942205 -118.344076 260 38040ft 401kts
28-Apr-18 11:01 37.926870 -118.484086 260 38108ft 401kts
28-Apr-18 11:02 37.911400 -118.623741 260 38152ft 402kts
28-Apr-18 11:03 37.896116 -118.760222 259 38159ft 402kts
28-Apr-18 11:04 37.880268 -118.900210 261 38179ft 402kts
28-Apr-18 11:05 37.864285 -119.039830 263 38163ft 400kts
28-Apr-18 11:06 37.848202 -119.178835 263 38134ft 400kts
28-Apr-18 11:07 37.831951 -119.317776 263 38136ft 400kts
28-Apr-18 11:08 37.815538 -119.456530 263 38145ft 400kts
28-Apr-18 11:09 37.798876 -119.595553 263 38161ft 400kts
28-Apr-18 11:10 37.782004 -119.733028 263 38195ft 401kts
28-Apr-18 11:11 37.766000 -119.870592 263 36631ft 393kts
28-Apr-18 11:12 37.749377 -120.004970 263 34724ft 382kts
28-Apr-18 11:13 37.733177 -120.134776 263 33008ft 367kts
28-Apr-18 11:14 37.717549 -120.259260 262 31320ft 352kts
28-Apr-18 11:15 37.702435 -120.378797 261 29659ft 338kts
28-Apr-18 11:16 37.688802 -120.493423 262 28041ft 328kts
28-Apr-18 11:17 37.675705 -120.605792 261 26418ft 320kts
28-Apr-18 11:18 37.661990 -120.722635 260 24715ft 365kts
28-Apr-18 11:19 37.647055 -120.847111 260 22844ft 352kts
28-Apr-18 11:20 37.632635 -120.965839 259 21056ft 337kts
28-Apr-18 11:21 37.617445 -121.079573 260 19325ft 322kts
28-Apr-18 11:22 37.602944 -121.187402 261 17611ft 309kts
28-Apr-18 11:23 37.589341 -121.290552 262 16077ft 293kts
28-Apr-18 11:24 37.578187 -121.388886 262 14566ft 282kts
28-Apr-18 11:25 37.567323 -121.483056 262 13122ft 273kts
28-Apr-18 11:26 37.556551 -121.575558 262 11702ft 265kts
28-Apr-18 11:27 37.541740 -121.662617 253 10652ft 253kts
28-Apr-18 11:28 37.521941 -121.745581 253 9405ft 251kts
28-Apr-18 11:29 37.502566 -121.826454 254 8460ft 239kts
28-Apr-18 11:30 37.483896 -121.902127 253 7657ft 228kts
28-Apr-18 11:31 37.464255 -121.975747 253 6662ft 226kts
28-Apr-18 11:32 37.482465 -122.049234 298 5320ft 235kts
28-Apr-18 11:33 37.510920 -122.117673 298 4188ft 209kts
28-Apr-18 11:34 37.535811 -122.177181 298 3184ft 172kts
28-Apr-18 11:35 37.556225 -122.225968 297 2338ft 158kts
28-Apr-18 11:36 37.574680 -122.270050 296 1571ft 129kts
28-Apr-18 11:37 37.590720 -122.308332 295 898ft 127kts
28-Apr-18 11:38 37.606376 -122.345615 295 274ft 126kts
28-Apr-18 11:39 37.618568 -122.374756 295 21ft 36kts
28-Apr-18 11:40 37.618225 -122.379517 188 31ft 14kts
28-Apr-18 11:41 37.615820 -122.381855 281 32ft 8kts
28-Apr-18 11:42 37.615499 -122.382659 232 32ft 0kts

Navigation Log

Ident Type
Flight plan parsing failed, navigation log unavailable